createdAt,value
2018-06-12T00:01:56.405Z,47.23
2018-06-12T00:04:51.265Z,33.17
2018-06-12T00:07:52.063Z,42.13
2018-06-12T00:22:59.696Z,45.80
2018-06-12T00:46:15.521Z,41.53
2018-06-12T00:48:48.521Z,43.40
2018-06-12T01:13:13.616Z,39.30
2018-06-12T01:15:48.947Z,36.20
2018-06-12T01:18:25.527Z,32.90
2018-06-12T01:20:58.058Z,37.87
2018-06-12T01:23:30.997Z,36.93
2018-06-12T01:26:03.149Z,39.07
2018-06-12T01:28:37.089Z,51.10
2018-06-12T01:31:14.326Z,55.17
2018-06-12T01:33:51.324Z,45.53
2018-06-12T01:36:24.823Z,40.27
2018-06-12T01:38:56.933Z,38.87
2018-06-12T01:41:28.208Z,34.93
2018-06-12T01:44:04.165Z,40.43
2018-06-12T01:46:37.538Z,33.57
2018-06-12T01:49:11.716Z,40.17
2018-06-12T01:51:44.759Z,38.33
2018-06-12T01:54:19.101Z,34.83
2018-06-12T01:56:53.421Z,34.47
2018-06-12T01:59:28.429Z,40.33
2018-06-12T02:02:04.021Z,35.17
2018-06-12T02:04:38.847Z,35.20
2018-06-12T02:07:11.100Z,34.40
2018-06-12T02:09:41.562Z,33.20
2018-06-12T02:12:13.636Z,34.70
2018-06-12T02:14:45.861Z,35.20
2018-06-12T02:17:19.472Z,30.73
2018-06-12T02:19:53.101Z,39.47
2018-06-12T02:22:25.120Z,29.77
2018-06-12T02:25:01.488Z,40.17
2018-06-12T02:27:35.710Z,37.50
2018-06-12T02:30:09.144Z,53.97
2018-06-12T02:32:41.927Z,41.63
2018-06-12T02:35:16.850Z,42.50
2018-06-12T02:37:48.753Z,37.00
2018-06-12T02:40:23.292Z,34.03
2018-06-12T02:42:56.912Z,40.83
2018-06-12T02:45:29.766Z,39.50
2018-06-12T02:48:03.042Z,40.23
2018-06-12T02:50:36.719Z,42.20
2018-06-12T02:53:14.762Z,38.90
2018-06-12T02:55:48.556Z,44.37
2018-06-12T02:58:20.502Z,36.17
2018-06-12T03:00:52.771Z,35.67
2018-06-12T03:03:23.685Z,50.23
2018-06-12T03:05:54.532Z,37.20
2018-06-12T03:08:27.931Z,42.03
2018-06-12T03:10:59.891Z,49.60
2018-06-12T03:13:32.170Z,43.00
2018-06-12T03:16:03.435Z,51.93
2018-06-12T03:18:37.518Z,40.83
2018-06-12T03:21:12.297Z,47.50
2018-06-12T03:23:44.910Z,42.20
2018-06-12T03:26:17.746Z,53.50
2018-06-12T03:28:50.895Z,47.97
2018-06-12T03:31:23.392Z,45.27
2018-06-12T03:33:57.079Z,47.20
2018-06-12T03:36:29.350Z,48.50
2018-06-12T03:39:02.964Z,43.17
2018-06-12T03:41:35.959Z,54.10
2018-06-12T03:44:08.787Z,54.30
2018-06-12T03:46:41.167Z,51.77
2018-06-12T03:49:13.513Z,68.43
2018-06-12T03:51:45.316Z,52.80
2018-06-12T03:54:17.656Z,57.80
2018-06-12T03:56:49.745Z,61.90
2018-06-12T03:59:25.036Z,55.70
2018-06-12T04:01:57.085Z,60.50
2018-06-12T04:04:29.265Z,63.47
2018-06-12T04:07:05.766Z,73.17
2018-06-12T04:09:37.750Z,62.33
2018-06-12T04:12:10.242Z,68.77
2018-06-12T04:14:42.411Z,67.07
2018-06-12T04:17:15.811Z,53.80
2018-06-12T04:19:48.835Z,63.70
2018-06-12T04:22:21.467Z,56.37
2018-06-12T04:24:54.210Z,67.53
2018-06-12T04:27:27.442Z,78.93
2018-06-12T04:29:59.485Z,81.50
2018-06-12T04:32:31.502Z,68.83
2018-06-12T04:35:04.713Z,71.90
2018-06-12T04:37:40.396Z,79.60
2018-06-12T04:40:13.593Z,72.33
2018-06-12T04:42:48.371Z,81.03
2018-06-12T04:45:21.449Z,73.13
2018-06-12T04:47:52.731Z,80.73
2018-06-12T04:50:25.214Z,85.97
2018-06-12T04:52:57.010Z,99.43
2018-06-12T04:55:29.603Z,91.83
2018-06-12T04:58:01.944Z,94.00
2018-06-12T05:00:34.057Z,68.67
2018-06-12T05:03:05.031Z,73.00
2018-06-12T05:05:44.672Z,82.70
2018-06-12T05:08:16.523Z,80.90
2018-06-12T05:10:49.115Z,71.50
2018-06-12T05:13:18.688Z,86.93
2018-06-12T05:15:50.498Z,81.60
2018-06-12T05:18:22.939Z,81.63
2018-06-12T05:20:55.947Z,82.70
2018-06-12T05:23:28.718Z,104.03
2018-06-12T05:26:01.568Z,84.40
2018-06-12T05:28:32.602Z,84.27
2018-06-12T05:31:04.202Z,83.87
2018-06-12T05:33:34.663Z,89.57
2018-06-12T05:36:08.010Z,108.03
2018-06-12T05:38:39.257Z,91.97
2018-06-12T05:41:10.819Z,100.33
2018-06-12T05:43:43.114Z,105.40
2018-06-12T05:46:16.576Z,87.93
2018-06-12T05:48:49.810Z,91.10
2018-06-12T05:51:21.944Z,99.97
2018-06-12T05:53:54.996Z,90.07
2018-06-12T05:56:25.792Z,102.03
2018-06-12T05:58:58.134Z,102.00
2018-06-12T06:01:29.953Z,92.47
2018-06-12T06:04:01.929Z,91.47
2018-06-12T06:06:40.586Z,102.73
2018-06-12T06:09:13.361Z,102.83
2018-06-12T06:11:45.497Z,88.03
2018-06-12T06:14:15.949Z,85.87
2018-06-12T06:16:48.599Z,94.07
2018-06-12T06:19:20.626Z,105.13
2018-06-12T06:21:50.849Z,105.43
2018-06-12T06:24:22.306Z,96.40
2018-06-12T06:26:54.924Z,90.50
2018-06-12T06:29:25.023Z,102.93
2018-06-12T06:31:58.821Z,88.40
2018-06-12T06:34:32.205Z,119.23
2018-06-12T06:37:04.051Z,100.10
2018-06-12T06:39:34.521Z,101.70
2018-06-12T06:44:45.210Z,98.40
2018-06-12T06:49:52.719Z,91.17
2018-06-12T06:52:22.927Z,108.50
2018-06-12T06:54:53.940Z,104.23
2018-06-12T06:57:25.263Z,99.43
2018-06-12T07:16:30.799Z,79.23
2018-06-12T07:19:00.522Z,82.43
2018-06-12T07:21:30.096Z,73.70
2018-06-12T07:23:59.831Z,73.00
2018-06-12T07:26:30.367Z,69.93
2018-06-12T07:29:02.063Z,65.37
2018-06-12T07:31:32.850Z,68.97
2018-06-12T07:34:03.438Z,60.93
2018-06-12T07:36:33.751Z,67.53
2018-06-12T07:39:04.126Z,64.33
2018-06-12T07:41:33.865Z,76.93
